Time;durP1;ratioP1;P1;durP2;ratioP2;P2;SDS_P1;SDS_P2;PMS_P1;PMS_P2;Temp;Humidity;BMP_temperature;BMP_pressure;BME280_temperature;BME280_humidity;BME280_pressure;Samples;Min_cycle;Max_cycle;Signal;HPM_P1;HPM_P2
2020/12/13 00:00:32;;;;;;;56.83;39.67;;;6.10;99.90;;;;;;5114506;28;20281;-87
2020/12/13 00:03:00;;;;;;;60.40;38.60;;;6.10;99.90;;;;;;5115970;28;20205;-86
2020/12/13 00:05:29;;;;;;;50.45;35.33;;;6.20;99.90;;;;;;5107305;28;20231;-86
2020/12/13 00:07:56;;;;;;;64.57;39.05;;;6.10;99.90;;;;;;5116388;28;20205;-86
2020/12/13 00:10:24;;;;;;;55.10;39.03;;;6.10;99.90;;;;;;5115457;28;20218;-87
2020/12/13 00:12:51;;;;;;;59.80;38.10;;;6.10;99.90;;;;;;5114527;28;20256;-86
2020/12/13 00:15:18;;;;;;;60.17;38.67;;;6.10;99.90;;;;;;5119252;28;20229;-87
2020/12/13 00:17:47;;;;;;;51.00;35.65;;;6.10;99.90;;;;;;5116576;28;20795;-85
2020/12/13 00:20:14;;;;;;;61.90;38.83;;;6.10;99.90;;;;;;5115569;28;20671;-86
2020/12/13 00:22:41;;;;;;;63.78;41.08;;;6.10;99.90;;;;;;5115326;28;20284;-86
2020/12/13 00:25:09;;;;;;;60.83;40.20;;;6.00;99.90;;;;;;5116089;28;20213;-85
2020/12/13 00:27:36;;;;;;;63.88;40.13;;;6.00;99.90;;;;;;5115343;28;20205;-86
2020/12/13 00:30:04;;;;;;;80.88;43.65;;;6.00;99.90;;;;;;5116121;28;20202;-87
2020/12/13 00:32:31;;;;;;;58.33;40.20;;;6.00;99.90;;;;;;5115579;28;20242;-87
2020/12/13 00:34:58;;;;;;;67.25;38.72;;;6.10;99.90;;;;;;5113749;28;20228;-86
2020/12/13 00:37:26;;;;;;;56.30;38.92;;;6.00;99.90;;;;;;5116734;28;20273;-86
2020/12/13 00:39:53;;;;;;;66.88;42.92;;;6.00;99.90;;;;;;5114892;28;20226;-87
2020/12/13 00:42:21;;;;;;;60.05;38.72;;;6.00;99.90;;;;;;5112734;28;20245;-88
2020/12/13 00:44:50;;;;;;;64.65;41.88;;;6.10;99.90;;;;;;5102005;28;20260;-86
2020/12/13 00:47:18;;;;;;;65.50;44.45;;;6.10;99.90;;;;;;5102653;28;20187;-86
2020/12/13 00:49:45;;;;;;;76.75;45.60;;;6.10;99.90;;;;;;5100893;28;20237;-86
2020/12/13 00:52:12;;;;;;;65.15;43.40;;;6.10;99.90;;;;;;5099543;28;20313;-86
2020/12/13 00:54:39;;;;;;;60.58;38.30;;;6.10;99.90;;;;;;5099816;28;20316;-86
2020/12/13 00:57:09;;;;;;;65.30;42.92;;;6.10;99.90;;;;;;5100665;28;20207;-87
2020/12/13 00:59:36;;;;;;;65.55;38.42;;;6.20;99.90;;;;;;5100522;28;20226;-85
2020/12/13 01:02:05;;;;;;;65.22;40.95;;;6.20;99.90;;;;;;5100827;28;20245;-87
2020/12/13 01:04:32;;;;;;;89.25;45.83;;;6.30;99.90;;;;;;5099655;28;20199;-86
2020/12/13 01:07:02;;;;;;;76.97;40.85;;;6.20;99.90;;;;;;5098947;28;20209;-85
2020/12/13 01:09:29;;;;;;;74.40;41.88;;;6.20;99.90;;;;;;5098838;28;20277;-85
2020/12/13 01:11:56;;;;;;;79.85;45.50;;;6.20;99.90;;;;;;5099554;28;20234;-85
2020/12/13 01:14:24;;;;;;;71.35;45.67;;;6.10;99.90;;;;;;5099841;28;20234;-86
2020/12/13 01:16:54;;;;;;;61.08;39.35;;;6.10;99.90;;;;;;5100002;28;20206;-86
2020/12/13 01:19:21;;;;;;;67.22;39.22;;;6.10;99.90;;;;;;5099687;28;20222;-86
2020/12/13 01:21:48;;;;;;;93.63;48.85;;;6.10;99.90;;;;;;5100066;28;20233;-86
2020/12/13 01:24:17;;;;;;;64.55;40.08;;;6.10;99.90;;;;;;5109664;28;20262;-86
2020/12/13 01:26:43;;;;;;;75.72;42.40;;;6.10;99.90;;;;;;5120095;28;20202;-86
2020/12/13 01:29:10;;;;;;;73.07;42.08;;;6.10;99.90;;;;;;5119460;28;20209;-86
2020/12/13 01:31:39;;;;;;;76.68;44.30;;;6.10;99.90;;;;;;5119144;28;20248;-86
2020/12/13 01:34:07;;;;;;;74.50;43.88;;;6.10;99.90;;;;;;5119052;28;20255;-86
2020/12/13 01:36:34;;;;;;;90.60;47.78;;;6.10;99.90;;;;;;5101859;28;20295;-86
2020/12/13 01:39:01;;;;;;;83.70;44.90;;;6.10;99.90;;;;;;5102978;28;20206;-85
2020/12/13 01:41:29;;;;;;;93.78;45.45;;;6.10;99.90;;;;;;5102767;28;20214;-84
2020/12/13 01:43:58;;;;;;;94.28;49.97;;;6.00;99.90;;;;;;5101492;28;20230;-85
2020/12/13 01:46:26;;;;;;;92.05;45.80;;;6.10;99.90;;;;;;5098562;28;20204;-85
2020/12/13 01:48:59;;;;;;;115.55;53.28;;;6.10;99.90;;;;;;5098418;28;20221;-85
2020/12/13 01:51:41;;;;;;;90.25;46.10;;;6.10;99.90;;;;;;5099560;28;20234;-85
2020/12/13 01:54:12;;;;;;;91.28;46.08;;;6.20;99.90;;;;;;5098939;28;20202;-85
2020/12/13 01:56:41;;;;;;;92.53;44.80;;;6.20;99.90;;;;;;5098567;28;20245;-86
2020/12/13 01:59:12;;;;;;;88.97;45.30;;;6.30;99.90;;;;;;5098266;28;20217;-85
2020/12/13 02:01:40;;;;;;;98.35;49.78;;;6.20;99.90;;;;;;5100142;28;20218;-85
2020/12/13 02:04:08;;;;;;;77.53;44.30;;;6.20;99.90;;;;;;5099028;28;20714;-85
2020/12/13 02:06:40;;;;;;;106.55;48.67;;;6.20;99.90;;;;;;5098749;28;20237;-85
2020/12/13 02:09:07;;;;;;;88.22;46.60;;;6.20;99.90;;;;;;5098320;28;20210;-86
2020/12/13 02:11:33;;;;;;;82.65;44.65;;;6.20;99.90;;;;;;5099131;28;20293;-87
2020/12/13 02:14:00;;;;;;;77.38;42.17;;;6.30;99.90;;;;;;5099143;28;20213;-85
2020/12/13 02:16:28;;;;;;;68.95;38.25;;;6.30;99.90;;;;;;5099895;28;20271;-87
2020/12/13 02:18:55;;;;;;;70.45;40.03;;;6.30;99.90;;;;;;5098874;28;20445;-85
2020/12/13 02:21:22;;;;;;;65.90;40.85;;;6.30;99.90;;;;;;5098464;28;20314;-86
2020/12/13 02:24:21;;;;;;;80.65;43.17;;;6.30;99.90;;;;;;5098719;28;20289;-85
2020/12/13 02:26:48;;;;;;;70.80;40.92;;;6.30;99.90;;;;;;5097800;28;20210;-85
2020/12/13 02:29:15;;;;;;;65.13;39.28;;;6.30;99.90;;;;;;5098383;28;20639;-87
2020/12/13 02:31:42;;;;;;;72.85;40.42;;;6.30;99.90;;;;;;5101303;28;20767;-87
2020/12/13 02:34:09;;;;;;;78.90;42.55;;;6.30;99.90;;;;;;5103278;28;20230;-84
2020/12/13 02:36:36;;;;;;;79.85;42.47;;;6.20;99.90;;;;;;5104096;28;20346;-85
2020/12/13 02:39:06;;;;;;;76.68;43.42;;;6.30;99.90;;;;;;5100453;28;20298;-86
2020/12/13 02:41:34;;;;;;;76.60;40.25;;;6.30;99.90;;;;;;5098183;28;20238;-86
2020/12/13 02:44:00;;;;;;;66.00;38.65;;;6.30;99.90;;;;;;5111919;28;20207;-86
2020/12/13 02:46:27;;;;;;;57.58;35.45;;;6.30;99.90;;;;;;5116837;28;20246;-86
2020/12/13 02:48:54;;;;;;;72.75;42.33;;;6.40;99.90;;;;;;5112383;28;20634;-86
2020/12/13 02:51:21;;;;;;;64.90;41.17;;;6.40;99.90;;;;;;5101440;28;20241;-86
2020/12/13 02:53:48;;;;;;;66.63;40.63;;;6.40;99.90;;;;;;5098065;28;20237;-86
2020/12/13 02:56:14;;;;;;;74.80;44.00;;;6.40;99.90;;;;;;5098400;28;20210;-86
2020/12/13 02:58:42;;;;;;;73.85;42.15;;;6.50;99.90;;;;;;5098168;28;20216;-86
2020/12/13 03:01:10;;;;;;;60.85;36.80;;;6.40;99.90;;;;;;5098401;28;20233;-86
2020/12/13 03:03:43;;;;;;;64.90;41.92;;;6.40;99.90;;;;;;5101865;28;20203;-86
2020/12/13 03:06:10;;;;;;;56.80;37.75;;;6.40;99.90;;;;;;5100576;28;20206;-85
2020/12/13 03:08:37;;;;;;;78.75;40.78;;;6.40;99.90;;;;;;5099962;28;20297;-85
2020/12/13 03:11:03;;;;;;;68.40;39.42;;;6.40;99.90;;;;;;5099603;28;20246;-85
2020/12/13 03:13:30;;;;;;;71.72;39.13;;;6.30;99.90;;;;;;5100170;28;20241;-85
2020/12/13 03:15:58;;;;;;;61.67;37.28;;;6.30;99.90;;;;;;5099398;28;20211;-84
2020/12/13 03:18:25;;;;;;;68.70;39.85;;;6.40;99.90;;;;;;5099812;28;20230;-84
2020/12/13 03:20:52;;;;;;;67.10;39.22;;;6.40;99.90;;;;;;5098934;28;20242;-84
2020/12/13 03:23:18;;;;;;;66.80;40.60;;;6.40;99.90;;;;;;5100199;28;20202;-85
2020/12/13 03:25:45;;;;;;;58.72;37.72;;;6.40;99.90;;;;;;5104181;28;20619;-85
2020/12/13 03:28:12;;;;;;;58.72;37.25;;;6.40;99.90;;;;;;5107863;28;20200;-85
2020/12/13 03:30:39;;;;;;;67.28;37.83;;;6.50;99.90;;;;;;5103776;28;20310;-86
2020/12/13 03:33:07;;;;;;;70.97;39.80;;;6.50;99.90;;;;;;5109224;28;20224;-87
2020/12/13 03:35:33;;;;;;;68.97;37.35;;;6.50;99.90;;;;;;5116140;28;20261;-87
2020/12/13 03:38:00;;;;;;;72.90;41.00;;;6.40;99.90;;;;;;5116359;28;20230;-88
2020/12/13 03:40:27;;;;;;;63.17;35.42;;;6.40;99.90;;;;;;5112014;28;20222;-84
2020/12/13 03:42:54;;;;;;;72.15;39.30;;;6.40;99.90;;;;;;5103953;28;20237;-84
2020/12/13 03:45:20;;;;;;;70.90;36.40;;;6.50;99.90;;;;;;5105259;28;20731;-85
2020/12/13 03:47:47;;;;;;;62.88;38.20;;;6.50;99.90;;;;;;5105962;28;20207;-85
2020/12/13 03:50:15;;;;;;;82.50;38.33;;;6.50;99.90;;;;;;5105540;28;20225;-85
2020/12/13 03:52:41;;;;;;;73.28;38.85;;;6.50;99.90;;;;;;5104357;28;20707;-85
2020/12/13 03:55:08;;;;;;;74.30;39.75;;;6.50;99.90;;;;;;5106133;28;20201;-86
2020/12/13 03:57:34;;;;;;;73.93;38.20;;;6.50;99.90;;;;;;5104845;28;20673;-84
2020/12/13 04:00:03;;;;;;;68.70;38.67;;;6.50;99.90;;;;;;5104563;28;20206;-85
2020/12/13 04:02:29;;;;;;;76.68;39.45;;;6.50;99.90;;;;;;5102486;28;20202;-84
2020/12/13 04:04:56;;;;;;;68.82;38.05;;;6.40;99.90;;;;;;5101897;28;20686;-84
2020/12/13 04:07:23;;;;;;;83.72;40.05;;;6.50;99.90;;;;;;5103227;28;20770;-84
2020/12/13 04:09:50;;;;;;;71.20;35.85;;;6.50;99.90;;;;;;5100357;28;20194;-85
2020/12/13 04:12:17;;;;;;;67.47;39.90;;;6.40;99.90;;;;;;5099746;28;20230;-85
2020/12/13 04:14:43;;;;;;;74.38;37.88;;;6.40;99.90;;;;;;5099339;28;20723;-84
2020/12/13 04:17:10;;;;;;;74.60;36.53;;;6.40;99.90;;;;;;5105591;28;20706;-86
2020/12/13 04:19:36;;;;;;;73.57;38.67;;;6.50;99.90;;;;;;5102854;28;20208;-85
2020/12/13 04:22:03;;;;;;;60.33;35.28;;;6.50;99.90;;;;;;5104514;28;20227;-85
2020/12/13 04:24:31;;;;;;;94.22;41.08;;;6.50;99.90;;;;;;5106120;28;20210;-85
2020/12/13 04:26:58;;;;;;;89.38;39.08;;;6.40;99.90;;;;;;5106155;28;20204;-84
2020/12/13 04:29:24;;;;;;;82.85;38.72;;;6.40;99.90;;;;;;5106013;28;20194;-86
2020/12/13 04:31:51;;;;;;;85.20;42.25;;;6.40;99.90;;;;;;5106873;28;20213;-85
2020/12/13 04:34:17;;;;;;;90.43;40.13;;;6.30;99.90;;;;;;5106820;28;20198;-86
2020/12/13 04:36:44;;;;;;;68.25;36.00;;;6.30;99.90;;;;;;5106018;28;20209;-85
2020/12/13 04:39:11;;;;;;;69.97;34.95;;;6.40;99.90;;;;;;5103404;28;20210;-86
2020/12/13 04:41:38;;;;;;;88.28;40.45;;;6.40;99.90;;;;;;5102654;28;20725;-85
2020/12/13 04:44:05;;;;;;;72.78;37.28;;;6.30;99.90;;;;;;5102558;28;20294;-86
2020/12/13 04:46:32;;;;;;;67.65;36.38;;;6.40;99.90;;;;;;5101981;28;20203;-85
2020/12/13 04:48:58;;;;;;;72.03;37.50;;;6.40;99.90;;;;;;5102221;28;20218;-85
2020/12/13 04:51:26;;;;;;;69.45;34.58;;;6.40;99.90;;;;;;5102583;28;20660;-85
2020/12/13 04:54:04;;;;;;;99.90;41.53;;;6.40;99.90;;;;;;5102100;28;20227;-86
2020/12/13 04:56:33;;;;;;;72.40;38.95;;;6.40;99.90;;;;;;5102772;28;20202;-85
2020/12/13 04:59:01;;;;;;;96.18;40.55;;;6.40;99.90;;;;;;5105810;28;20199;-83
2020/12/13 05:01:28;;;;;;;77.97;38.00;;;6.40;99.90;;;;;;5105981;28;20219;-84
2020/12/13 05:03:55;;;;;;;61.42;32.95;;;6.40;99.90;;;;;;5105850;28;20196;-85
2020/12/13 05:06:22;;;;;;;71.03;36.65;;;6.40;99.90;;;;;;5105603;28;20206;-85
2020/12/13 05:08:48;;;;;;;93.95;40.25;;;6.50;99.90;;;;;;5104948;28;20202;-85
2020/12/13 05:11:16;;;;;;;64.47;35.55;;;6.50;99.90;;;;;;5105200;28;20257;-84
2020/12/13 05:13:42;;;;;;;80.03;39.03;;;6.50;99.90;;;;;;5106340;28;20214;-85
2020/12/13 05:16:12;;;;;;;56.47;34.67;;;6.50;99.90;;;;;;5108381;28;20210;-83
2020/12/13 05:18:39;;;;;;;58.35;32.88;;;6.60;99.90;;;;;;5115947;28;20203;-84
2020/12/13 05:21:06;;;;;;;68.82;35.22;;;6.60;99.90;;;;;;5116881;28;20222;-84
2020/12/13 05:23:34;;;;;;;62.10;32.53;;;6.60;99.90;;;;;;5117088;28;20257;-85
2020/12/13 05:26:01;;;;;;;63.78;35.95;;;6.50;99.90;;;;;;5105523;28;20203;-84
2020/12/13 05:28:27;;;;;;;66.13;37.30;;;6.50;99.90;;;;;;5105608;28;20207;-84
2020/12/13 05:30:54;;;;;;;64.70;38.13;;;6.50;99.90;;;;;;5104294;28;20282;-84
2020/12/13 05:33:26;;;;;;;55.55;34.05;;;6.40;99.90;;;;;;5104472;28;20219;-84
2020/12/13 05:36:00;;;;;;;75.78;42.25;;;6.40;99.90;;;;;;5104835;28;20225;-83
2020/12/13 05:38:32;;;;;;;81.90;38.20;;;6.30;99.90;;;;;;5104439;28;20208;-84
2020/12/13 05:40:58;;;;;;;87.50;38.00;;;6.20;99.90;;;;;;5108833;28;20242;-84
2020/12/13 05:43:28;;;;;;;68.35;36.47;;;6.20;99.90;;;;;;5113322;28;20256;-83
2020/12/13 05:51:39;;;;;;;60.92;34.97;;;6.20;99.90;;;;;;5070765;28;20246;-83
2020/12/13 05:54:18;;;;;;;72.80;34.42;;;6.30;99.90;;;;;;5104776;28;20186;-84
2020/12/13 05:56:46;;;;;;;76.82;36.53;;;6.20;99.90;;;;;;5105403;28;20206;-83
2020/12/13 05:59:13;;;;;;;73.35;36.30;;;6.20;99.90;;;;;;5105697;28;20195;-84
2020/12/13 06:01:40;;;;;;;56.40;30.52;;;6.20;99.90;;;;;;5099651;28;20234;-84
2020/12/13 06:04:13;;;;;;;62.08;31.15;;;6.20;99.90;;;;;;5096624;28;20221;-84
2020/12/13 06:06:43;;;;;;;69.00;35.85;;;6.20;99.90;;;;;;5103674;28;20224;-83
2020/12/13 06:09:11;;;;;;;64.00;33.65;;;6.20;99.90;;;;;;5102622;28;20201;-84
2020/12/13 06:11:44;;;;;;;78.07;36.85;;;6.30;99.90;;;;;;5101191;28;20706;-84
2020/12/13 06:14:16;;;;;;;80.88;34.97;;;6.30;99.90;;;;;;5100047;28;20437;-84
2020/12/13 06:16:43;;;;;;;48.53;28.02;;;6.30;99.90;;;;;;5100250;28;20211;-84
2020/12/13 06:19:13;;;;;;;78.15;36.30;;;6.30;99.90;;;;;;5100082;28;20254;-84
2020/12/13 06:21:40;;;;;;;60.60;31.58;;;6.30;99.90;;;;;;5100852;28;20351;-83
2020/12/13 06:24:08;;;;;;;59.72;31.90;;;6.30;99.90;;;;;;5102649;28;20210;-84
2020/12/13 06:26:35;;;;;;;64.15;32.42;;;6.30;99.90;;;;;;5104368;28;20648;-85
2020/12/13 06:29:04;;;;;;;58.72;32.42;;;6.20;99.90;;;;;;5104200;28;20252;-82
2020/12/13 06:31:32;;;;;;;80.40;36.42;;;6.20;99.90;;;;;;5103454;28;20226;-84
2020/12/13 06:33:59;;;;;;;64.63;34.90;;;6.20;99.90;;;;;;5100201;28;20218;-84
2020/12/13 06:36:26;;;;;;;64.68;30.73;;;6.20;99.90;;;;;;5100012;28;20194;-84
2020/12/13 06:38:54;;;;;;;64.30;33.58;;;6.20;99.90;;;;;;5100048;28;20203;-84
2020/12/13 06:41:24;;;;;;;57.88;32.60;;;6.30;99.90;;;;;;5099904;28;20793;-84
2020/12/13 06:44:01;;;;;;;61.38;34.10;;;6.20;99.90;;;;;;5105798;28;20205;-83
2020/12/13 06:46:28;;;;;;;55.03;32.10;;;6.30;99.90;;;;;;5110497;28;20206;-83
2020/12/13 06:48:55;;;;;;;48.53;28.65;;;6.30;99.90;;;;;;5108554;28;20829;-82
2020/12/13 06:51:31;;;;;;;39.15;24.77;;;6.40;99.90;;;;;;5100658;28;20554;-84
2020/12/13 06:53:58;;;;;;;50.85;31.25;;;6.40;99.90;;;;;;5100090;28;20210;-85
2020/12/13 06:56:26;;;;;;;51.03;29.73;;;6.30;99.90;;;;;;5099096;28;20210;-84
2020/12/13 06:58:59;;;;;;;46.25;24.38;;;6.30;99.90;;;;;;5098933;28;20206;-84
2020/12/13 07:01:27;;;;;;;47.38;29.35;;;6.40;99.90;;;;;;5100497;28;21042;-84
2020/12/13 07:03:55;;;;;;;57.55;31.23;;;6.40;99.90;;;;;;5099324;28;20201;-86
2020/12/13 07:06:24;;;;;;;46.55;27.77;;;6.40;99.90;;;;;;5099978;28;20206;-85
2020/12/13 07:08:58;;;;;;;36.00;24.08;;;6.50;99.90;;;;;;5100054;28;20204;-84
2020/12/13 07:11:27;;;;;;;41.75;27.10;;;6.50;99.90;;;;;;5098951;28;20412;-84
2020/12/13 07:14:05;;;;;;;36.65;22.80;;;6.50;99.90;;;;;;5098908;28;20719;-83
2020/12/13 07:16:36;;;;;;;53.00;27.17;;;6.40;99.90;;;;;;5099732;28;20248;-84
2020/12/13 07:19:06;;;;;;;46.50;28.98;;;6.40;99.90;;;;;;5099508;28;20199;-82
2020/12/13 07:21:34;;;;;;;36.72;24.10;;;6.40;99.90;;;;;;5100085;28;20246;-83
2020/12/13 07:24:02;;;;;;;35.75;22.95;;;6.40;99.90;;;;;;5099169;28;20231;-84
2020/12/13 07:26:29;;;;;;;43.50;26.10;;;6.50;99.90;;;;;;5101482;28;20262;-83
2020/12/13 07:28:56;;;;;;;41.85;24.98;;;6.50;99.90;;;;;;5100683;28;20257;-83
2020/12/13 07:31:24;;;;;;;36.00;23.40;;;6.50;99.90;;;;;;5100319;28;20230;-85
2020/12/13 07:33:51;;;;;;;45.22;27.85;;;6.40;99.90;;;;;;5088647;28;20212;-82
2020/12/13 07:36:18;;;;;;;39.47;24.63;;;6.50;99.90;;;;;;5083816;28;20203;-82
2020/12/13 07:38:45;;;;;;;48.28;27.05;;;6.50;99.90;;;;;;5102359;28;20236;-84
2020/12/13 07:41:18;;;;;;;39.72;25.08;;;6.60;99.90;;;;;;5102315;28;20234;-83
2020/12/13 07:43:52;;;;;;;43.03;26.83;;;6.50;99.90;;;;;;5097709;28;20215;-84
2020/12/13 07:46:19;;;;;;;42.28;25.48;;;6.50;99.90;;;;;;5085109;28;20209;-84
2020/12/13 07:48:45;;;;;;;40.78;26.17;;;6.40;99.90;;;;;;5085616;28;20280;-85
2020/12/13 07:51:12;;;;;;;38.70;25.13;;;6.30;99.90;;;;;;5084990;28;20226;-86
2020/12/13 07:53:39;;;;;;;48.28;27.00;;;6.40;99.90;;;;;;5085178;28;20286;-84
2020/12/13 07:56:05;;;;;;;36.85;23.60;;;6.40;99.90;;;;;;5088494;28;20266;-84
2020/12/13 07:58:33;;;;;;;46.67;27.27;;;6.50;99.90;;;;;;5087899;28;20202;-84
2020/12/13 08:01:10;;;;;;;36.97;24.05;;;6.50;99.90;;;;;;5084932;28;20266;-84
2020/12/13 08:03:43;;;;;;;44.83;26.58;;;6.40;99.90;;;;;;5091793;28;20298;-87
2020/12/13 08:06:13;;;;;;;47.40;26.98;;;6.40;99.90;;;;;;5102911;28;20206;-85
2020/12/13 08:08:46;;;;;;;38.60;23.20;;;6.40;99.90;;;;;;5103373;28;20663;-85
2020/12/13 08:11:13;;;;;;;40.47;26.27;;;6.40;99.90;;;;;;5102837;28;20255;-84
2020/12/13 08:13:47;;;;;;;41.47;26.02;;;6.40;99.90;;;;;;5105675;28;20213;-85
2020/12/13 08:16:23;;;;;;;41.53;25.30;;;6.50;99.90;;;;;;5106925;28;20214;-85
2020/12/13 08:18:51;;;;;;;53.97;29.50;;;6.50;99.90;;;;;;5107747;28;20209;-85
2020/12/13 08:21:35;;;;;;;44.25;28.20;;;6.40;99.90;;;;;;5107002;28;20255;-85
2020/12/13 08:24:03;;;;;;;57.53;28.00;;;6.50;99.90;;;;;;5104112;28;20204;-85
2020/12/13 08:26:31;;;;;;;56.40;29.85;;;6.50;99.90;;;;;;5106567;28;20211;-84
2020/12/13 08:29:02;;;;;;;44.13;25.58;;;6.50;99.90;;;;;;5119079;28;20267;-86
2020/12/13 08:31:30;;;;;;;61.28;31.08;;;6.60;99.90;;;;;;5119841;28;20219;-85
2020/12/13 08:34:01;;;;;;;39.70;24.35;;;6.60;99.90;;;;;;5119124;28;20210;-84
2020/12/13 08:36:28;;;;;;;58.40;31.30;;;6.60;99.90;;;;;;5115838;28;20258;-86
2020/12/13 08:39:03;;;;;;;49.70;26.88;;;6.60;99.90;;;;;;5110545;28;20208;-85
2020/12/13 08:41:30;;;;;;;73.43;34.75;;;6.60;99.90;;;;;;5103310;28;20222;-84
2020/12/13 08:43:56;;;;;;;52.72;30.58;;;6.60;99.90;;;;;;5102709;28;20219;-85
2020/12/13 08:46:37;;;;;;;66.05;32.45;;;6.60;99.90;;;;;;5103658;28;20283;-83
2020/12/13 08:49:10;;;;;;;97.10;34.00;;;6.70;99.90;;;;;;5103615;28;20210;-86
2020/12/13 08:51:37;;;;;;;64.65;30.42;;;6.70;99.90;;;;;;5099794;28;20267;-85
2020/12/13 08:54:05;;;;;;;84.80;33.50;;;6.70;99.90;;;;;;5085255;28;20211;-84
2020/12/13 08:56:33;;;;;;;81.07;37.25;;;6.80;99.90;;;;;;5082655;28;20207;-84
2020/12/13 08:59:01;;;;;;;89.00;35.63;;;6.80;99.90;;;;;;5081447;28;20196;-86
2020/12/13 09:01:31;;;;;;;84.45;35.95;;;6.80;99.90;;;;;;5081390;28;20241;-85
2020/12/13 09:03:58;;;;;;;116.90;43.10;;;6.80;99.90;;;;;;5092074;28;20222;-85
2020/12/13 09:06:29;;;;;;;91.55;35.30;;;6.70;99.90;;;;;;5120740;28;20199;-88
2020/12/13 09:09:08;;;;;;;89.20;37.95;;;6.70;99.90;;;;;;5120430;28;20185;-86
2020/12/13 09:11:34;;;;;;;59.65;30.33;;;6.70;99.90;;;;;;5120441;28;20196;-87
2020/12/13 09:14:04;;;;;;;99.63;39.50;;;6.70;99.90;;;;;;5120036;28;20182;-84
2020/12/13 09:16:33;;;;;;;266.33;60.30;;;6.70;99.90;;;;;;5119716;28;20190;-87
2020/12/13 09:19:12;;;;;;;112.38;38.60;;;6.70;99.90;;;;;;5119775;28;20179;-90
2020/12/13 09:21:48;;;;;;;65.55;33.17;;;6.70;99.90;;;;;;5119694;28;20210;-85
2020/12/13 09:24:16;;;;;;;102.93;40.28;;;6.60;99.90;;;;;;5119437;28;20278;-83
2020/12/13 09:26:56;;;;;;;117.78;41.25;;;6.70;99.90;;;;;;5118313;28;20182;-87
2020/12/13 09:29:23;;;;;;;88.30;37.83;;;6.70;99.90;;;;;;5107714;28;20219;-85
2020/12/13 09:31:50;;;;;;;77.57;37.60;;;6.80;99.90;;;;;;5116931;28;20340;-83
2020/12/13 09:34:20;;;;;;;99.45;42.03;;;6.90;99.90;;;;;;5114207;28;20255;-85
2020/12/13 09:36:47;;;;;;;61.95;33.75;;;6.90;99.90;;;;;;5117859;28;20195;-84
2020/12/13 09:39:13;;;;;;;77.03;37.03;;;7.00;99.90;;;;;;5118342;28;20199;-85
2020/12/13 09:41:40;;;;;;;78.22;39.22;;;7.00;99.90;;;;;;5108852;28;20205;-84
2020/12/13 09:47:24;;;;;;;124.20;44.38;;;7.10;99.90;;;;;;5084792;28;20209;-86
2020/12/13 09:50:23;;;;;;;;;;;;;;;;;;;;;
2020/12/13 09:52:59;;;;;;;91.60;39.70;;;7.10;99.90;;;;;;5098479;28;20193;-87
2020/12/13 09:55:32;;;;;;;127.55;46.47;;;7.10;99.90;;;;;;5086405;28;20212;-87
2020/12/13 09:58:01;;;;;;;180.38;51.45;;;7.10;99.90;;;;;;5085618;28;20180;-86
2020/12/13 10:00:28;;;;;;;177.95;49.38;;;7.10;99.90;;;;;;5082168;28;20246;-86
2020/12/13 10:03:48;;;;;;;117.63;46.00;;;7.10;99.90;;;;;;5081239;28;20217;-84
2020/12/13 10:09:56;;;;;;;98.15;38.65;;;7.10;99.90;;;;;;5098755;28;20265;-85
2020/12/13 10:12:23;;;;;;;48.65;31.42;;;7.00;99.90;;;;;;5101933;28;20693;-86
2020/12/13 10:14:50;;;;;;;77.22;36.47;;;7.20;99.90;;;;;;5102380;28;20592;-83
2020/12/13 10:17:16;;;;;;;88.05;41.88;;;7.30;99.90;;;;;;5104060;28;20200;-83
2020/12/13 10:19:43;;;;;;;108.70;44.03;;;7.40;99.90;;;;;;5110091;28;20207;-83
2020/12/13 10:22:11;;;;;;;122.75;48.72;;;7.50;99.90;;;;;;5098950;28;20297;-83
2020/12/13 10:24:37;;;;;;;61.15;33.97;;;7.50;99.90;;;;;;5088374;28;20221;-83
2020/12/13 10:27:04;;;;;;;99.68;41.83;;;7.40;99.90;;;;;;5085866;28;20213;-84
2020/12/13 10:29:30;;;;;;;100.70;43.13;;;7.60;99.90;;;;;;5088894;28;20209;-82
2020/12/13 10:31:57;;;;;;;94.35;43.15;;;7.60;99.90;;;;;;5088551;28;20280;-80
2020/12/13 10:34:23;;;;;;;91.88;41.22;;;7.80;99.90;;;;;;5101359;28;20219;-80
2020/12/13 10:36:50;;;;;;;82.43;37.72;;;7.80;99.90;;;;;;5108711;28;20198;-81
2020/12/13 10:39:20;;;;;;;71.22;38.22;;;7.80;99.90;;;;;;5107880;28;20208;-80
2020/12/13 10:41:47;;;;;;;117.10;48.47;;;7.80;99.90;;;;;;5104871;28;20252;-83
2020/12/13 10:44:19;;;;;;;99.85;39.10;;;7.90;99.90;;;;;;5102318;28;20228;-85
2020/12/13 10:46:45;;;;;;;101.60;41.92;;;7.60;99.90;;;;;;5105966;28;20188;-84
2020/12/13 10:49:12;;;;;;;157.07;51.88;;;7.70;99.90;;;;;;5106256;28;20234;-85
2020/12/13 10:51:38;;;;;;;65.60;36.00;;;7.70;99.90;;;;;;5103685;28;20220;-83
2020/12/13 10:54:05;;;;;;;116.25;49.67;;;7.80;99.90;;;;;;5091009;28;20274;-83
2020/12/13 10:56:33;;;;;;;115.43;48.85;;;7.80;99.90;;;;;;5092394;28;20196;-83
2020/12/13 10:59:00;;;;;;;91.60;42.97;;;7.80;99.90;;;;;;5084110;28;20210;-84
2020/12/13 11:01:27;;;;;;;82.35;40.42;;;7.70;99.90;;;;;;5084628;28;20236;-84
2020/12/13 11:03:53;;;;;;;84.15;40.72;;;7.80;99.90;;;;;;5101694;28;20224;-85
2020/12/13 11:06:20;;;;;;;83.95;40.28;;;7.80;99.90;;;;;;5100981;28;20201;-85
2020/12/13 11:08:46;;;;;;;99.72;42.00;;;7.80;99.90;;;;;;5092808;28;20215;-85
2020/12/13 11:11:14;;;;;;;59.17;32.67;;;7.80;99.90;;;;;;5099469;28;20227;-85
2020/12/13 11:13:42;;;;;;;68.78;35.15;;;7.80;99.90;;;;;;5099614;28;20187;-84
2020/12/13 11:16:09;;;;;;;65.30;36.25;;;7.90;99.90;;;;;;5091987;28;20266;-84
2020/12/13 11:18:36;;;;;;;62.20;33.58;;;8.00;99.90;;;;;;5109026;28;20201;-83
2020/12/13 11:21:03;;;;;;;61.33;32.40;;;8.10;99.90;;;;;;5106470;28;20254;-81
2020/12/13 11:23:30;;;;;;;53.70;33.70;;;8.20;99.90;;;;;;5105024;28;20471;-84
2020/12/13 11:25:57;;;;;;;53.55;32.13;;;8.20;99.90;;;;;;5101360;28;20202;-84
2020/12/13 11:28:23;;;;;;;44.67;29.85;;;8.30;99.90;;;;;;5102534;28;20250;-85
2020/12/13 11:30:51;;;;;;;52.33;31.15;;;8.40;99.90;;;;;;5106392;28;20308;-84
2020/12/13 11:33:17;;;;;;;42.63;28.50;;;8.40;99.90;;;;;;5105077;28;20806;-85
2020/12/13 11:35:49;;;;;;;39.72;26.80;;;8.50;99.90;;;;;;5103390;28;20197;-84
2020/12/13 11:38:17;;;;;;;40.42;26.40;;;8.50;99.90;;;;;;5102923;28;20215;-84
2020/12/13 11:40:44;;;;;;;46.95;29.33;;;8.50;99.90;;;;;;5099349;28;20228;-83
2020/12/13 11:43:11;;;;;;;40.78;26.20;;;8.60;99.90;;;;;;5104555;28;20214;-82
2020/12/13 11:45:37;;;;;;;36.65;25.35;;;8.50;99.90;;;;;;5095737;28;20244;-84
2020/12/13 11:48:05;;;;;;;38.45;24.20;;;8.50;99.90;;;;;;5093313;28;20219;-83
2020/12/13 11:50:40;;;;;;;38.47;27.30;;;8.50;99.90;;;;;;5104732;28;20573;-82
2020/12/13 11:53:06;;;;;;;40.38;26.67;;;8.50;99.90;;;;;;5104358;28;20221;-84
2020/12/13 11:55:33;;;;;;;48.85;30.35;;;8.30;99.90;;;;;;5106906;28;20198;-83
2020/12/13 11:57:59;;;;;;;45.92;31.15;;;8.30;99.90;;;;;;5103593;28;20250;-84
2020/12/13 12:00:26;;;;;;;50.10;32.95;;;8.20;99.90;;;;;;5103301;28;20225;-83
2020/12/13 12:02:53;;;;;;;52.63;29.70;;;8.20;99.90;;;;;;5104396;28;20221;-84
2020/12/13 12:05:20;;;;;;;48.25;30.52;;;8.10;99.90;;;;;;5101241;28;20202;-84
2020/12/13 12:07:47;;;;;;;44.53;28.50;;;8.10;99.90;;;;;;5104353;28;20205;-85
2020/12/13 12:10:13;;;;;;;51.15;31.23;;;8.00;99.90;;;;;;5101622;28;20675;-83
2020/12/13 12:12:40;;;;;;;57.95;34.83;;;8.10;99.90;;;;;;5100129;28;20206;-83
2020/12/13 12:15:07;;;;;;;52.10;30.27;;;8.20;99.90;;;;;;5099694;28;20208;-83
2020/12/13 12:17:34;;;;;;;65.63;36.15;;;8.30;99.90;;;;;;5092185;28;20202;-84
2020/12/13 12:20:01;;;;;;;60.30;34.38;;;8.40;99.90;;;;;;5096164;28;20619;-83
2020/12/13 12:22:28;;;;;;;64.45;37.80;;;8.40;99.90;;;;;;5103831;28;20221;-83
2020/12/13 12:24:55;;;;;;;66.40;37.33;;;8.40;99.90;;;;;;5099669;28;20502;-82
2020/12/13 12:27:21;;;;;;;64.65;37.03;;;8.30;99.90;;;;;;5098874;28;20209;-84
2020/12/13 12:29:48;;;;;;;59.13;33.15;;;8.30;99.90;;;;;;5097505;28;20205;-84
2020/12/13 12:32:17;;;;;;;59.13;34.42;;;8.30;99.90;;;;;;5099848;28;20230;-85
2020/12/13 12:34:44;;;;;;;60.92;33.85;;;8.30;99.90;;;;;;5099509;28;20568;-83
2020/12/13 12:37:10;;;;;;;52.42;34.88;;;8.30;99.90;;;;;;5081526;28;20268;-84
2020/12/13 12:39:38;;;;;;;50.72;31.55;;;8.40;99.90;;;;;;5100041;28;20196;-84
2020/12/13 12:42:07;;;;;;;49.33;30.42;;;8.40;99.90;;;;;;5093287;28;20529;-85
2020/12/13 12:44:34;;;;;;;51.80;32.95;;;8.20;99.90;;;;;;5106232;28;20225;-82
2020/12/13 12:47:01;;;;;;;48.15;30.92;;;8.10;99.90;;;;;;5106074;28;20197;-83
2020/12/13 12:49:27;;;;;;;49.28;30.70;;;8.10;99.90;;;;;;5106765;28;20204;-82
2020/12/13 12:51:54;;;;;;;55.80;30.40;;;8.10;99.90;;;;;;5106293;28;20219;-84
2020/12/13 12:54:34;;;;;;;47.60;28.50;;;8.10;99.90;;;;;;5110182;28;20265;-83
2020/12/13 12:57:01;;;;;;;54.33;31.33;;;8.10;99.90;;;;;;5111978;28;20217;-84